Time;durP1;ratioP1;P1;durP2;ratioP2;P2;SDS_P1;SDS_P2;PMS_P1;PMS_P2;Temp;Humidity;BMP_temperature;BMP_pressure;BME280_temperature;BME280_humidity;BME280_pressure;Samples;Min_cycle;Max_cycle;Signal;HPM_P1;HPM_P2
2023/03/03 00:00:38;;;;;;;33.25;22.23;;;;;;;-0.53;100.00;102362.16;4988491;28;20189;-41
2023/03/03 00:03:07;;;;;;;32.05;21.17;;;;;;;-0.57;100.00;102351.47;4974317;28;20854;-42
2023/03/03 00:05:34;;;;;;;31.10;22.73;;;;;;;-0.64;100.00;102359.16;4982179;28;20285;-44
2023/03/03 00:08:00;;;;;;;27.92;20.58;;;;;;;-0.65;100.00;102367.94;4980042;28;20174;-41
2023/03/03 00:10:27;;;;;;;29.88;20.65;;;;;;;-0.82;100.00;102357.69;4984668;28;20178;-40
2023/03/03 00:12:52;;;;;;;27.20;19.13;;;;;;;-0.79;100.00;102368.31;4981673;28;20462;-39
2023/03/03 00:15:21;;;;;;;27.92;19.83;;;;;;;-0.82;100.00;102366.47;4984806;28;20173;-41
2023/03/03 00:17:47;;;;;;;28.92;21.00;;;;;;;-0.87;100.00;102357.56;4980774;28;20182;-46
2023/03/03 00:20:36;;;;;;;28.42;20.70;;;;;;;-0.89;100.00;102364.50;4988728;28;20181;-48
2023/03/03 00:23:16;;;;;;;28.35;18.98;;;;;;;-0.86;100.00;102352.31;4984659;28;20220;-46
2023/03/03 00:25:44;;;;;;;26.92;18.77;;;;;;;-0.90;100.00;102355.69;4973165;28;20232;-41
2023/03/03 00:28:15;;;;;;;28.33;19.85;;;;;;;-0.87;100.00;102358.44;4978477;28;20182;-43
2023/03/03 00:30:41;;;;;;;24.75;18.33;;;;;;;-0.90;100.00;102354.81;4976981;28;20243;-42
2023/03/03 00:33:22;;;;;;;26.38;18.05;;;;;;;-0.95;100.00;102349.38;4985603;28;20217;-41
2023/03/03 00:35:48;;;;;;;22.65;17.42;;;;;;;-0.96;100.00;102347.63;4985309;28;20674;-43
2023/03/03 00:38:17;;;;;;;30.20;19.98;;;;;;;-0.96;100.00;102359.84;4978027;28;20190;-47
2023/03/03 00:40:43;;;;;;;28.17;18.48;;;;;;;-1.00;100.00;102364.13;4979610;28;20264;-41
2023/03/03 00:43:23;;;;;;;23.20;17.92;;;;;;;-1.00;100.00;102360.63;4989172;28;20254;-44
2023/03/03 00:45:53;;;;;;;27.00;18.92;;;;;;;-1.07;100.00;102354.25;4979901;28;20181;-44
2023/03/03 00:48:21;;;;;;;23.23;17.70;;;;;;;-1.05;100.00;102355.16;4974179;28;20181;-43
2023/03/03 00:50:47;;;;;;;25.83;17.83;;;;;;;-1.09;100.00;102348.94;4987566;28;20193;-46
2023/03/03 00:53:17;;;;;;;25.83;18.00;;;;;;;-1.13;100.00;102346.16;4970953;28;20210;-42
2023/03/03 00:55:45;;;;;;;23.98;18.52;;;;;;;-1.17;100.00;102350.41;4976027;28;20335;-43
2023/03/03 00:58:12;;;;;;;27.60;20.25;;;;;;;-1.34;100.00;102347.19;4974986;28;20562;-43
2023/03/03 01:00:42;;;;;;;28.27;19.23;;;;;;;-1.49;100.00;102351.91;4975766;28;20265;-42
2023/03/03 01:03:16;;;;;;;25.55;19.15;;;;;;;-1.41;100.00;102349.56;4984358;28;20677;-43
2023/03/03 01:05:42;;;;;;;24.83;17.63;;;;;;;-1.38;100.00;102350.53;4977602;28;20566;-47
2023/03/03 01:08:08;;;;;;;24.90;17.73;;;;;;;-1.38;100.00;102344.38;4985482;28;20177;-43
2023/03/03 01:10:40;;;;;;;26.88;17.88;;;;;;;-1.39;100.00;102345.25;4981549;28;20193;-40
2023/03/03 01:13:06;;;;;;;23.00;17.05;;;;;;;-1.40;100.00;102346.06;4974379;28;20296;-43
2023/03/03 01:15:32;;;;;;;23.70;16.00;;;;;;;-1.37;100.00;102340.94;4955132;28;20210;-44
2023/03/03 01:17:58;;;;;;;22.10;15.60;;;;;;;-1.39;100.00;102346.13;4972084;28;20174;-42
2023/03/03 01:20:23;;;;;;;26.70;18.40;;;;;;;-1.50;100.00;102331.72;4989921;28;20647;-45
2023/03/03 01:22:49;;;;;;;28.35;17.60;;;;;;;-1.53;100.00;102335.13;4991636;28;20677;-41
2023/03/03 01:25:14;;;;;;;24.80;18.25;;;;;;;-1.53;100.00;102335.13;4982034;28;20206;-44
2023/03/03 01:27:40;;;;;;;24.95;17.90;;;;;;;-1.51;100.00;102327.28;4976945;28;20189;-46
2023/03/03 01:30:07;;;;;;;23.30;16.73;;;;;;;-1.51;100.00;102327.28;4987981;28;20592;-48
2023/03/03 01:32:33;;;;;;;23.88;17.23;;;;;;;-1.49;100.00;102329.16;4985958;28;20572;-43
2023/03/03 01:34:59;;;;;;;28.00;19.05;;;;;;;-1.63;100.00;102324.25;4989986;28;20189;-45
2023/03/03 01:37:24;;;;;;;23.90;17.40;;;;;;;-1.66;100.00;102323.28;4989562;28;20184;-44
2023/03/03 01:39:51;;;;;;;24.33;18.13;;;;;;;-1.60;100.00;102322.59;4987024;28;20182;-46
2023/03/03 01:42:18;;;;;;;24.70;18.08;;;;;;;-1.62;100.00;102308.50;4987793;28;20291;-42
2023/03/03 01:44:44;;;;;;;25.88;19.13;;;;;;;-1.72;100.00;102317.81;4973136;28;20301;-42
2023/03/03 01:47:18;;;;;;;25.60;16.85;;;;;;;-1.65;100.00;102311.03;4981461;28;20214;-45
2023/03/03 01:50:04;;;;;;;28.80;19.08;;;;;;;-1.85;100.00;102315.59;4975265;28;20201;-43
2023/03/03 01:52:36;;;;;;;23.88;16.73;;;;;;;-1.78;100.00;102314.97;4976101;28;20205;-46
2023/03/03 01:55:11;;;;;;;21.52;16.02;;;;;;;-1.76;100.00;102317.66;4976629;28;20166;-42
2023/03/03 01:57:42;;;;;;;24.23;17.20;;;;;;;-1.75;100.00;102317.72;5002548;28;20192;-44
2023/03/03 02:00:10;;;;;;;24.23;17.25;;;;;;;-1.89;100.00;102309.31;4976624;28;20791;-43
2023/03/03 02:02:41;;;;;;;24.08;16.33;;;;;;;-1.86;100.00;102313.78;4990063;28;20665;-46
2023/03/03 02:05:08;;;;;;;22.52;16.40;;;;;;;-1.83;100.00;102302.50;4987555;28;20245;-47
2023/03/03 02:07:35;;;;;;;24.80;16.35;;;;;;;-1.81;100.00;102314.84;4989300;28;20224;-43
2023/03/03 02:10:05;;;;;;;21.98;16.27;;;;;;;-1.80;100.00;102313.13;4987403;28;20637;-44
2023/03/03 02:12:44;;;;;;;21.70;15.52;;;;;;;-1.78;100.00;102322.84;4977140;28;20288;-46
2023/03/03 02:15:27;;;;;;;21.80;15.75;;;;;;;-1.77;100.00;102323.72;4978354;28;20174;-44
2023/03/03 02:17:56;;;;;;;22.33;16.88;;;;;;;-1.78;100.00;102324.56;4970511;28;20177;-42
2023/03/03 02:20:34;;;;;;;24.88;17.45;;;;;;;-1.83;100.00;102327.03;4996522;28;20226;-44
2023/03/03 02:23:16;;;;;;;25.77;16.55;;;;;;;-1.80;100.00;102332.41;4985576;28;20208;-43
2023/03/03 02:25:56;;;;;;;21.67;15.18;;;;;;;-1.83;100.00;102324.41;4988855;28;20208;-45
2023/03/03 02:28:26;;;;;;;22.50;15.63;;;;;;;-1.80;100.00;102335.03;4986849;28;20341;-42
2023/03/03 02:30:56;;;;;;;24.73;17.33;;;;;;;-1.84;100.00;102327.84;4984066;28;20247;-44
2023/03/03 02:33:23;;;;;;;24.80;16.80;;;;;;;-1.87;100.00;102323.41;4989446;28;20174;-41
2023/03/03 02:35:50;;;;;;;22.92;17.13;;;;;;;-1.98;100.00;102318.59;4987188;28;20189;-43
2023/03/03 02:38:41;;;;;;;23.17;15.95;;;;;;;-1.91;100.00;102310.97;4976919;28;20552;-42
2023/03/03 02:41:22;;;;;;;23.95;16.90;;;;;;;-1.94;100.00;102310.00;4977879;28;20186;-47
2023/03/03 02:44:04;;;;;;;21.92;15.98;;;;;;;-1.94;100.00;102310.00;4999604;28;20200;-46
2023/03/03 02:46:34;;;;;;;21.70;14.93;;;;;;;-1.94;100.00;102310.88;5005069;28;20204;-45
2023/03/03 02:49:00;;;;;;;23.77;16.27;;;;;;;-1.91;100.00;102323.22;4977855;28;20711;-43
2023/03/03 02:51:26;;;;;;;22.65;16.05;;;;;;;-1.98;100.00;102323.84;4985035;28;20208;-42
2023/03/03 02:53:52;;;;;;;23.15;15.60;;;;;;;-1.96;100.00;102322.19;4980211;28;20565;-41
2023/03/03 02:56:17;;;;;;;23.75;16.30;;;;;;;-2.16;100.00;102311.81;4981681;28;20197;-43
2023/03/03 02:58:43;;;;;;;21.23;15.65;;;;;;;-2.15;100.00;102305.72;4992705;28;20178;-46
2023/03/03 03:01:08;;;;;;;22.77;16.75;;;;;;;-2.21;100.00;102296.72;4992655;28;20181;-42
2023/03/03 03:03:34;;;;;;;20.45;15.23;;;;;;;-2.11;100.00;102302.38;4986934;28;20703;-43
2023/03/03 03:06:02;;;;;;;19.90;14.18;;;;;;;-2.17;100.00;102291.63;4974363;28;20200;-47
2023/03/03 03:08:28;;;;;;;23.45;16.70;;;;;;;-2.17;100.00;102296.88;4977821;28;20595;-44
2023/03/03 03:10:55;;;;;;;24.23;16.25;;;;;;;-2.26;100.00;102307.03;4973256;28;20289;-43
2023/03/03 03:13:24;;;;;;;20.17;15.40;;;;;;;-2.24;100.00;102304.50;4972768;28;20217;-43
2023/03/03 03:15:50;;;;;;;19.35;15.32;;;;;;;-2.23;100.00;102303.63;4957170;28;20610;-46
2023/03/03 03:18:16;;;;;;;22.10;15.07;;;;;;;-2.26;100.00;102293.03;4972841;28;20265;-44
2023/03/03 03:20:43;;;;;;;21.30;15.52;;;;;;;-2.24;100.00;102287.00;4972972;28;20170;-44
2023/03/03 03:23:10;;;;;;;21.67;15.38;;;;;;;-2.20;100.00;102291.53;4994041;28;20200;-41
2023/03/03 03:25:44;;;;;;;23.33;16.42;;;;;;;-2.29;100.00;102281.56;4987453;28;20205;-43
2023/03/03 03:28:14;;;;;;;21.10;14.90;;;;;;;-2.40;100.00;102266.28;5003866;28;20266;-44
2023/03/03 03:30:40;;;;;;;20.30;14.02;;;;;;;-2.31;100.00;102271.88;4989128;28;20185;-42
2023/03/03 03:33:06;;;;;;;22.73;16.48;;;;;;;-2.37;100.00;102275.13;4979816;28;20197;-44
2023/03/03 03:35:33;;;;;;;24.30;16.83;;;;;;;-2.49;100.00;102272.94;4989511;28;20280;-43
2023/03/03 03:37:59;;;;;;;19.45;15.27;;;;;;;-2.40;100.00;102268.91;4981661;28;20562;-42
2023/03/03 03:40:25;;;;;;;20.98;15.15;;;;;;;-2.43;100.00;102256.53;4985551;28;20178;-44
2023/03/03 03:42:52;;;;;;;19.33;14.88;;;;;;;-2.43;100.00;102263.50;4986232;28;20599;-44
2023/03/03 03:45:18;;;;;;;21.40;16.00;;;;;;;-2.44;100.00;102272.25;4983645;28;20672;-43
2023/03/03 03:47:46;;;;;;;20.77;14.52;;;;;;;-2.49;100.00;102280.81;4987514;28;20173;-42
2023/03/03 03:50:13;;;;;;;20.00;14.73;;;;;;;-2.43;100.00;102276.63;4979256;28;20200;-47
2023/03/03 03:52:39;;;;;;;23.33;15.10;;;;;;;-2.54;100.00;102270.97;4972231;28;20237;-48
2023/03/03 03:55:06;;;;;;;19.05;14.07;;;;;;;-2.47;100.00;102272.09;5008088;23;20225;-43
2023/03/03 03:57:33;;;;;;;20.13;13.70;;;;;;;-2.46;100.00;102261.66;4958951;28;20196;-40
2023/03/03 03:59:59;;;;;;;19.58;14.27;;;;;;;-2.50;100.00;102273.75;4980323;28;20601;-42
2023/03/03 04:02:25;;;;;;;19.55;13.75;;;;;;;-2.62;100.00;102285.53;4995769;28;20209;-41
2023/03/03 04:04:50;;;;;;;22.00;14.65;;;;;;;-2.54;100.00;102286.72;4984248;28;20256;-42
2023/03/03 04:07:16;;;;;;;18.23;13.98;;;;;;;-2.61;100.00;102288.22;4986012;28;20221;-42
2023/03/03 04:09:41;;;;;;;18.15;13.23;;;;;;;-2.56;100.00;102283.13;4988351;28;20228;-42
2023/03/03 04:12:08;;;;;;;18.00;14.02;;;;;;;-2.68;100.00;102293.16;4996485;28;20205;-40
2023/03/03 04:14:34;;;;;;;15.63;12.52;;;;;;;-2.59;100.00;102285.66;4982540;28;20208;-40
2023/03/03 04:17:00;;;;;;;18.63;12.40;;;;;;;-2.55;100.00;102300.69;4983480;28;20181;-45
2023/03/03 04:19:25;;;;;;;17.85;13.27;;;;;;;-2.58;100.00;102293.59;4975431;28;20190;-44
2023/03/03 04:21:51;;;;;;;14.75;11.43;;;;;;;-2.54;100.00;102298.09;4978502;28;20698;-42
2023/03/03 04:24:18;;;;;;;16.48;13.27;;;;;;;-2.54;100.00;102303.34;4985133;28;20204;-43
2023/03/03 04:26:45;;;;;;;12.20;10.35;;;;;;;-2.52;100.00;102298.16;4978995;28;20190;-42
2023/03/03 04:29:10;;;;;;;15.77;12.25;;;;;;;-2.62;100.00;102288.16;4991207;28;20185;-40
2023/03/03 04:31:37;;;;;;;16.63;12.02;;;;;;;-2.62;100.00;102282.91;4979676;28;20209;-40
2023/03/03 04:34:05;;;;;;;14.48;11.77;;;;;;;-2.55;100.00;102284.94;4984817;28;20534;-41
2023/03/03 04:36:31;;;;;;;16.30;11.88;;;;;;;-2.45;100.00;102280.94;4974388;28;20190;-41
2023/03/03 04:38:57;;;;;;;19.92;12.60;;;;;;;-2.50;100.00;102270.25;4975172;28;20186;-43
2023/03/03 04:41:23;;;;;;;16.33;12.80;;;;;;;-2.55;100.00;102263.94;4983096;28;20201;-43
2023/03/03 04:43:48;;;;;;;14.63;11.25;;;;;;;-2.46;100.00;102277.41;4982996;28;20347;-43
2023/03/03 04:46:14;;;;;;;17.95;12.98;;;;;;;-2.43;100.00;102292.38;4972077;28;20213;-40
2023/03/03 04:48:39;;;;;;;15.95;11.98;;;;;;;-2.82;100.00;102293.53;4971288;28;20185;-41
2023/03/03 04:51:05;;;;;;;18.08;11.90;;;;;;;-2.80;100.00;102289.22;4985521;28;20189;-43
2023/03/03 04:53:33;;;;;;;14.93;11.50;;;;;;;-2.75;100.00;102281.53;4976484;28;20293;-41
2023/03/03 04:55:59;;;;;;;17.35;12.65;;;;;;;-2.70;100.00;102303.59;4984569;28;20264;-41
2023/03/03 04:58:24;;;;;;;17.90;12.18;;;;;;;-2.64;100.00;102292.47;4983506;28;20699;-43
2023/03/03 05:00:55;;;;;;;15.40;11.45;;;;;;;-2.62;100.00;102296.94;4976514;28;20178;-43
2023/03/03 05:03:22;;;;;;;17.05;11.55;;;;;;;-2.55;100.00;102298.06;4977558;28;20182;-41
2023/03/03 05:05:49;;;;;;;15.73;11.75;;;;;;;-2.45;100.00;102304.53;4980649;28;20186;-41
2023/03/03 05:08:14;;;;;;;13.75;11.30;;;;;;;-2.32;100.00;102310.34;4982482;28;20223;-39
2023/03/03 05:10:40;;;;;;;14.73;12.15;;;;;;;-2.14;100.00;102302.28;4975910;28;20310;-41
2023/03/03 05:13:07;;;;;;;14.85;12.18;;;;;;;-2.07;100.00;102285.91;4976623;28;20239;-42
2023/03/03 05:15:32;;;;;;;16.63;13.23;;;;;;;-1.97;100.00;102296.72;4979089;28;20193;-42
2023/03/03 05:17:58;;;;;;;19.55;13.50;;;;;;;-1.91;100.00;102303.09;4973251;28;20257;-42
2023/03/03 05:20:24;;;;;;;24.88;14.15;;;;;;;-1.78;100.00;102312.31;4976931;28;20189;-43
2023/03/03 05:22:50;;;;;;;27.58;15.00;;;;;;;-1.71;100.00;102308.19;4983023;28;20197;-41
2023/03/03 05:25:16;;;;;;;27.50;14.45;;;;;;;-1.65;100.00;102308.41;4979273;28;20205;-38
2023/03/03 05:27:42;;;;;;;28.67;15.10;;;;;;;-1.57;100.00;102306.06;4984659;28;20723;-41
2023/03/03 05:30:09;;;;;;;50.33;16.45;;;;;;;-1.51;100.00;102314.16;4984539;28;20231;-43
2023/03/03 05:32:35;;;;;;;65.30;18.63;;;;;;;-1.39;100.00;102311.06;4980748;28;20209;-40
2023/03/03 05:35:01;;;;;;;25.17;15.98;;;;;;;-1.37;100.00;102320.78;4991228;28;20228;-43
2023/03/03 05:37:26;;;;;;;25.38;13.60;;;;;;;-1.30;100.00;102328.03;4974169;28;20255;-42
2023/03/03 05:39:52;;;;;;;28.70;14.77;;;;;;;-1.23;100.00;102328.25;4985063;28;20276;-42
2023/03/03 05:42:18;;;;;;;58.67;13.68;;;;;;;-1.23;100.00;102328.25;4983375;28;20201;-41
2023/03/03 05:44:43;;;;;;;42.42;12.57;;;;;;;-1.16;100.00;102335.50;4981083;28;20245;-42
2023/03/03 05:47:09;;;;;;;60.97;13.05;;;;;;;-1.15;100.00;102332.06;4980199;28;20197;-43
2023/03/03 05:49:35;;;;;;;26.25;11.88;;;;;;;-1.14;100.00;102323.31;4973696;28;20194;-45
2023/03/03 05:52:00;;;;;;;47.28;12.05;;;;;;;-1.12;100.00;102326.88;4977112;28;20575;-44
2023/03/03 05:54:26;;;;;;;21.90;10.23;;;;;;;-1.12;100.00;102329.50;4980603;28;20276;-46
2023/03/03 05:56:52;;;;;;;112.68;12.68;;;;;;;-1.08;100.00;102327.03;4979088;28;20190;-45
2023/03/03 05:59:18;;;;;;;22.17;11.27;;;;;;;-1.10;100.00;102318.19;4980219;28;20802;-43
2023/03/03 06:01:44;;;;;;;11.48;9.10;;;;;;;-1.05;100.00;102315.72;4979345;28;20212;-44
2023/03/03 06:04:09;;;;;;;19.05;10.70;;;;;;;-1.01;100.00;102304.47;4975727;28;20210;-46
2023/03/03 06:06:36;;;;;;;15.50;10.68;;;;;;;-0.94;100.00;102303.84;4980230;28;20185;-44
2023/03/03 06:09:01;;;;;;;26.67;11.02;;;;;;;-0.95;100.00;102299.41;4978945;28;20644;-44
2023/03/03 06:11:27;;;;;;;68.57;11.75;;;;;;;-0.95;100.00;102314.31;4977680;28;20221;-45
2023/03/03 06:13:52;;;;;;;27.58;10.20;;;;;;;-0.94;100.00;102317.00;4983437;28;20185;-46
2023/03/03 06:16:19;;;;;;;59.25;11.93;;;;;;;-0.92;100.00;102315.31;4982148;28;20553;-44
2023/03/03 06:18:45;;;;;;;90.22;13.07;;;;;;;-0.85;100.00;102309.41;4982412;28;20651;-45
2023/03/03 06:21:10;;;;;;;19.95;11.63;;;;;;;-0.90;100.00;102310.06;4983529;28;20216;-45
2023/03/03 06:23:35;;;;;;;11.68;9.63;;;;;;;-0.86;100.00;102314.59;4981318;28;20182;-44
2023/03/03 06:26:01;;;;;;;23.77;10.15;;;;;;;-0.84;100.00;102315.53;4985559;28;20193;-43
2023/03/03 06:28:27;;;;;;;11.75;9.18;;;;;;;-0.84;100.00;102321.69;4981738;28;20184;-46
2023/03/03 06:30:56;;;;;;;22.13;9.27;;;;;;;-0.81;100.00;102322.63;4983043;28;20178;-46
2023/03/03 06:33:21;;;;;;;9.50;7.90;;;;;;;-0.77;100.00;102319.25;4981986;28;20294;-44
2023/03/03 06:35:52;;;;;;;25.23;9.20;;;;;;;-0.78;100.00;102322.75;4981636;28;20296;-45
2023/03/03 06:38:18;;;;;;;17.35;8.73;;;;;;;-0.74;100.00;102328.16;4980904;28;20185;-44
2023/03/03 06:40:44;;;;;;;60.08;10.52;;;;;;;-0.76;100.00;102334.22;4981666;28;20202;-44
2023/03/03 06:43:10;;;;;;;63.97;11.07;;;;;;;-0.77;100.00;102337.69;4982249;28;20590;-46
2023/03/03 06:45:35;;;;;;;48.75;10.95;;;;;;;-0.79;100.00;102339.38;4980269;28;20202;-44
2023/03/03 06:48:01;;;;;;;10.02;8.52;;;;;;;-0.72;100.00;102346.59;4981351;28;20231;-44
2023/03/03 06:50:26;;;;;;;19.17;8.65;;;;;;;-0.70;100.00;102342.28;4983160;28;20284;-45
2023/03/03 06:53:09;;;;;;;66.82;12.88;;;;;;;-0.73;100.00;102339.56;4978512;28;20205;-45
2023/03/03 06:55:35;;;;;;;25.95;9.65;;;;;;;-0.66;100.00;102338.91;4980228;28;20281;-45
2023/03/03 06:58:01;;;;;;;12.40;9.35;;;;;;;-0.61;100.00;102350.50;4979797;28;20276;-45
2023/03/03 07:00:27;;;;;;;25.13;10.40;;;;;;;-0.52;100.00;102339.38;4981678;28;20173;-45
2023/03/03 07:02:59;;;;;;;22.35;12.07;;;;;;;-0.49;100.00;102339.47;4981259;28;20208;-43
2023/03/03 07:05:27;;;;;;;15.65;11.27;;;;;;;-0.48;100.00;102347.41;4973733;28;20244;-44
2023/03/03 07:07:57;;;;;;;43.83;13.30;;;;;;;-0.49;100.00;102352.63;4980746;28;20205;-43
2023/03/03 07:10:26;;;;;;;15.43;10.90;;;;;;;-0.44;100.00;102351.94;4982084;28;20169;-46
2023/03/03 07:12:52;;;;;;;18.05;12.30;;;;;;;-0.42;100.00;102344.06;4975875;28;20213;-44
2023/03/03 07:15:23;;;;;;;32.38;12.90;;;;;;;-0.37;100.00;102349.47;4984268;28;20279;-43
2023/03/03 07:17:53;;;;;;;35.15;12.73;;;;;;;-0.40;100.00;102349.38;4979813;28;20212;-45
2023/03/03 07:20:26;;;;;;;22.65;11.82;;;;;;;-0.37;100.00;102347.75;4980131;28;20624;-45
2023/03/03 07:22:52;;;;;;;69.65;14.70;;;;;;;-0.39;100.00;102349.44;4981380;28;20213;-45
2023/03/03 07:25:45;;;;;;;36.80;11.82;;;;;;;-0.36;100.00;102348.66;4978485;28;20633;-45
2023/03/03 07:28:19;;;;;;;55.47;13.68;;;;;;;-0.35;100.00;102343.44;4979703;28;20216;-45
2023/03/03 07:30:45;;;;;;;35.83;13.52;;;;;;;-0.39;100.00;102344.19;4981263;28;20185;-45
2023/03/03 07:33:34;;;;;;;75.75;14.18;;;;;;;-0.42;100.00;102352.88;4980372;28;20657;-45
2023/03/03 07:36:02;;;;;;;27.55;13.43;;;;;;;-0.31;100.00;102369.00;4980685;28;20181;-44
2023/03/03 07:38:41;;;;;;;30.75;12.98;;;;;;;-0.33;100.00;102369.78;4980412;28;20198;-45
2023/03/03 07:41:22;;;;;;;16.42;12.25;;;;;;;-0.24;100.00;102362.16;4982181;28;20189;-45
2023/03/03 07:43:53;;;;;;;29.02;13.68;;;;;;;-0.19;100.00;102357.97;4980098;28;20301;-45
2023/03/03 07:46:42;;;;;;;38.38;14.25;;;;;;;-0.22;100.00;102352.56;4982097;28;20875;-45
2023/03/03 07:49:19;;;;;;;30.63;13.38;;;;;;;-0.20;100.00;102361.41;4980319;28;20190;-45
2023/03/03 07:51:44;;;;;;;32.33;13.88;;;;;;;-0.17;100.00;102351.00;4974112;28;20260;-44
2023/03/03 07:54:27;;;;;;;25.20;14.27;;;;;;;-0.13;100.00;102344.97;4982854;28;20189;-45
2023/03/03 07:56:57;;;;;;;20.52;14.02;;;;;;;-0.12;100.00;102344.13;4976705;28;20233;-44
2023/03/03 07:59:24;;;;;;;23.08;15.55;;;;;;;-0.09;100.00;102362.66;4980973;28;20561;-45
2023/03/03 08:01:54;;;;;;;37.67;15.95;;;;;;;-0.08;100.00;102351.28;4977027;28;20630;-45
2023/03/03 08:04:21;;;;;;;19.20;14.07;;;;;;;-0.07;100.00;102353.03;4981793;28;20228;-43
2023/03/03 08:06:59;;;;;;;24.52;16.27;;;;;;;0.05;100.00;102362.19;4978402;28;20198;-43
2023/03/03 08:09:44;;;;;;;22.10;14.25;;;;;;;0.13;100.00;102360.66;4981162;28;20208;-43
2023/03/03 08:12:13;;;;;;;21.95;15.05;;;;;;;0.16;100.00;102360.75;4983548;28;20221;-46
2023/03/03 08:14:38;;;;;;;24.90;15.63;;;;;;;0.19;100.00;102358.19;4979925;28;20177;-44
2023/03/03 08:17:21;;;;;;;26.15;15.55;;;;;;;0.24;100.00;102364.50;4985809;28;20617;-45
2023/03/03 08:19:48;;;;;;;20.58;14.38;;;;;;;0.30;100.00;102364.66;4980843;28;20619;-45
2023/03/03 08:22:19;;;;;;;21.63;14.85;;;;;;;0.30;100.00;102354.13;4979888;28;20210;-45
2023/03/03 08:24:45;;;;;;;21.52;16.13;;;;;;;0.28;100.00;102368.13;4974915;28;20204;-45
2023/03/03 08:27:10;;;;;;;24.40;17.63;;;;;;;0.37;100.00;102373.63;4980137;28;20193;-45
2023/03/03 08:29:36;;;;;;;25.75;17.42;;;;;;;0.38;100.00;102372.81;4977903;28;20196;-44
2023/03/03 08:32:01;;;;;;;20.17;14.55;;;;;;;0.46;100.00;102373.94;4976016;28;20583;-44
2023/03/03 08:34:27;;;;;;;20.30;15.27;;;;;;;0.51;100.00;102374.94;4978157;28;20280;-45
2023/03/03 08:36:52;;;;;;;19.40;14.88;;;;;;;0.60;100.00;102374.31;4977143;28;20181;-43
2023/03/03 08:39:18;;;;;;;21.83;16.27;;;;;;;0.59;100.00;102362.88;4979180;28;20217;-45
2023/03/03 08:41:45;;;;;;;21.00;16.00;;;;;;;0.56;100.00;102380.34;4976544;28;20212;-45
2023/03/03 08:44:10;;;;;;;22.20;16.50;;;;;;;0.59;100.00;102376.06;4980882;28;20210;-46
2023/03/03 08:46:36;;;;;;;24.98;16.00;;;;;;;0.78;100.00;102379.19;4984224;28;20440;-45
2023/03/03 08:49:02;;;;;;;19.63;16.27;;;;;;;0.81;100.00;102374.88;4988783;28;20189;-45
2023/03/03 08:51:28;;;;;;;19.35;15.02;;;;;;;0.85;100.00;102370.56;4983679;28;20280;-45
2023/03/03 08:53:54;;;;;;;17.50;14.57;;;;;;;1.01;100.00;102369.25;4975568;28;20269;-44
2023/03/03 08:56:19;;;;;;;21.92;14.48;;;;;;;1.17;100.00;102368.75;4993298;28;20194;-44
2023/03/03 08:58:46;;;;;;;18.63;14.55;;;;;;;1.24;100.00;102365.41;4980568;28;20185;-43
2023/03/03 09:01:16;;;;;;;20.05;15.20;;;;;;;1.37;100.00;102363.09;4977740;28;20186;-45
2023/03/03 09:03:43;;;;;;;18.58;15.45;;;;;;;1.41;100.00;102364.94;4983179;28;20236;-44
2023/03/03 09:06:09;;;;;;;18.88;15.57;;;;;;;1.59;100.00;102360.09;4974862;28;20276;-46
2023/03/03 09:08:36;;;;;;;18.67;15.10;;;;;;;1.71;100.00;102366.53;4980045;28;20217;-45
2023/03/03 09:11:02;;;;;;;17.83;14.27;;;;;;;1.88;100.00;102365.19;4980959;28;20186;-45
2023/03/03 09:13:29;;;;;;;18.73;14.05;;;;;;;1.83;100.00;102361.53;4983732;28;20224;-44
2023/03/03 09:15:57;;;;;;;19.15;14.18;;;;;;;1.97;100.00;102354.81;4980026;28;20178;-45
2023/03/03 09:18:36;;;;;;;17.38;13.77;;;;;;;2.15;100.00;102349.00;4978335;28;20190;-45
2023/03/03 09:21:15;;;;;;;20.10;12.35;;;;;;;2.28;100.00;102350.16;4983620;28;20695;-45
2023/03/03 09:23:42;;;;;;;12.73;9.70;;;;;;;1.99;100.00;102353.09;4979670;28;20599;-45
2023/03/03 09:26:10;;;;;;;10.50;9.45;;;;;;;2.32;100.00;102353.72;4985522;28;20679;-46
2023/03/03 09:28:36;;;;;;;15.20;9.93;;;;;;;2.30;100.00;102353.72;4986055;28;20193;-45
2023/03/03 09:31:04;;;;;;;11.35;8.25;;;;;;;2.32;100.00;102357.28;4980056;28;20792;-44
2023/03/03 09:33:48;;;;;;;10.82;8.18;;;;;;;2.37;100.00;102352.09;4982310;28;20259;-43
2023/03/03 09:36:34;;;;;;;12.38;7.95;;;;;;;2.40;100.00;102350.38;4986442;28;20186;-45
2023/03/03 09:39:11;;;;;;;11.57;6.82;;;;;;;2.48;100.00;102346.16;4982739;28;20522;-45
2023/03/03 09:41:58;;;;;;;9.02;7.20;;;;;;;2.53;100.00;102338.28;4982350;28;20276;-45
2023/03/03 09:44:29;;;;;;;7.20;6.43;;;;;;;2.56;100.00;102326.88;4981613;28;20206;-44
2023/03/03 09:46:58;;;;;;;10.15;6.47;;;;;;;2.59;100.00;102326.94;4977081;28;20600;-44
2023/03/03 09:49:56;;;;;;;7.88;6.00;;;;;;;2.81;100.00;102325.59;4981266;28;20632;-44
2023/03/03 09:52:40;;;;;;;7.75;5.90;;;;;;;3.08;100.00;102333.09;4976447;28;20576;-46
2023/03/03 09:58:30;;;;;;;6.47;5.18;;;;;;;3.12;100.00;102319.03;4945915;28;20218;-47
2023/03/03 10:01:08;;;;;;;6.43;5.32;;;;;;;3.19;100.00;102317.38;4921078;28;20572;-44
2023/03/03 10:03:36;;;;;;;9.35;5.03;;;;;;;3.36;100.00;102312.38;4969373;28;20201;-45
2023/03/03 10:06:15;;;;;;;7.20;4.65;;;;;;;3.49;100.00;102309.03;4971066;28;20559;-46
2023/03/03 10:09:07;;;;;;;4.82;4.35;;;;;;;3.56;100.00;102292.34;4971138;28;20276;-46
2023/03/03 10:11:53;;;;;;;10.25;5.18;;;;;;;3.70;100.00;102289.91;4971460;28;20201;-46
2023/03/03 10:15:02;;;;;;;5.65;3.90;;;;;;;3.89;100.00;102291.03;4968177;28;20182;-46
2023/03/03 10:17:48;;;;;;;3.78;3.22;;;;;;;4.00;100.00;102289.44;4963468;28;20205;-44
2023/03/03 10:20:41;;;;;;;4.65;2.97;;;;;;;4.04;100.00;102277.94;4962854;28;20179;-45
2023/03/03 10:23:22;;;;;;;5.63;2.80;;;;;;;4.08;100.00;102285.06;4973881;28;20775;-45
2023/03/03 10:26:16;;;;;;;5.43;2.30;;;;;;;4.10;100.00;102275.38;4968227;28;20676;-45
2023/03/03 10:29:02;;;;;;;3.70;2.40;;;;;;;4.16;100.00;102266.63;4971389;28;20194;-45
2023/03/03 10:32:02;;;;;;;3.95;2.28;;;;;;;4.20;100.00;102271.09;4968585;28;20202;-45
2023/03/03 10:34:52;;;;;;;5.95;2.72;;;;;;;4.26;100.00;102263.19;4969171;28;20272;-46
2023/03/03 10:37:33;;;;;;;8.05;2.47;;;;;;;4.32;100.00;102265.91;4967421;28;20180;-44
2023/03/03 10:40:09;;;;;;;6.10;2.25;;;;;;;4.24;100.00;102253.41;4969782;28;20371;-46
2023/03/03 10:43:07;;;;;;;7.25;2.40;;;;;;;4.34;100.00;102247.34;4969383;28;20263;-44
2023/03/03 10:45:44;;;;;;;7.55;2.50;;;;;;;4.30;100.00;102242.88;4973624;28;20222;-45
2023/03/03 10:48:31;;;;;;;4.72;2.08;;;;;;;4.27;100.00;102245.50;4967288;28;20228;-44
2023/03/03 10:51:15;;;;;;;4.07;2.08;;;;;;;4.28;100.00;102240.19;4982907;28;20664;-42
2023/03/03 10:54:20;;;;;;;6.95;2.20;;;;;;;4.33;100.00;102242.94;4972211;28;20268;-41
2023/03/03 10:56:53;;;;;;;4.90;2.03;;;;;;;4.38;100.00;102238.56;4979272;28;20197;-42
2023/03/03 10:59:40;;;;;;;5.90;2.10;;;;;;;4.55;100.00;102230.75;4985830;28;20182;-42
2023/03/03 11:02:24;;;;;;;6.00;2.15;;;;;;;4.51;100.00;102208.59;4980663;28;20742;-42
2023/03/03 11:05:04;;;;;;;6.57;1.92;;;;;;;4.64;100.00;102204.28;4971917;28;20225;-41
2023/03/03 11:07:39;;;;;;;4.60;1.77;;;;;;;4.65;100.00;102210.47;4979861;28;20260;-41
2023/03/03 11:10:29;;;;;;;5.13;1.98;;;;;;;4.74;100.00;102199.94;4972488;28;20201;-42
2023/03/03 11:13:02;;;;;;;10.90;2.20;;;;;;;4.73;100.00;102201.69;4981042;28;20218;-43
2023/03/03 11:15:43;;;;;;;6.95;1.35;;;;;;;4.62;100.00;102208.69;4980263;28;20628;-42
2023/03/03 11:18:19;;;;;;;4.72;1.52;;;;;;;4.79;100.00;102200.88;4978692;28;20179;-43
2023/03/03 11:20:44;;;;;;;7.07;2.10;;;;;;;4.48;100.00;102203.28;4961971;28;20651;-42
2023/03/03 11:23:13;;;;;;;6.50;2.28;;;;;;;4.48;100.00;102200.63;4973592;28;20204;-43
2023/03/03 11:26:02;;;;;;;5.20;1.98;;;;;;;4.46;100.00;102201.47;4968437;28;20202;-42